sensor_id;sensor_type;location;lat;lon;timestamp;P1;durP1;ratioP1;P2;durP2;ratioP2
17310;SDS011;8773;43.300;0.394;2024-03-22T00:01:13;10.57;;;9.43;;
17310;SDS011;8773;43.300;0.394;2024-03-22T00:03:41;11.23;;;9.00;;
17310;SDS011;8773;43.300;0.394;2024-03-22T00:06:08;12.30;;;9.13;;
17310;SDS011;8773;43.300;0.394;2024-03-22T00:08:35;12.60;;;8.30;;
17310;SDS011;8773;43.300;0.394;2024-03-22T00:11:02;10.10;;;8.63;;
17310;SDS011;8773;43.300;0.394;2024-03-22T00:13:29;12.10;;;9.10;;
17310;SDS011;8773;43.300;0.394;2024-03-22T00:15:57;12.53;;;9.60;;
17310;SDS011;8773;43.300;0.394;2024-03-22T00:18:25;12.90;;;9.13;;
17310;SDS011;8773;43.300;0.394;2024-03-22T00:20:51;11.90;;;8.43;;
17310;SDS011;8773;43.300;0.394;2024-03-22T00:23:19;13.57;;;9.80;;
17310;SDS011;8773;43.300;0.394;2024-03-22T00:25:45;13.40;;;9.87;;
17310;SDS011;8773;43.300;0.394;2024-03-22T00:28:13;14.10;;;9.97;;
17310;SDS011;8773;43.300;0.394;2024-03-22T00:30:39;11.10;;;9.73;;
17310;SDS011;8773;43.300;0.394;2024-03-22T00:33:08;12.73;;;9.13;;
17310;SDS011;8773;43.300;0.394;2024-03-22T00:35:34;12.57;;;9.13;;
17310;SDS011;8773;43.300;0.394;2024-03-22T00:38:02;12.20;;;9.53;;
17310;SDS011;8773;43.300;0.394;2024-03-22T00:40:29;10.53;;;8.73;;
17310;SDS011;8773;43.300;0.394;2024-03-22T00:42:56;12.47;;;9.73;;
17310;SDS011;8773;43.300;0.394;2024-03-22T00:45:23;12.03;;;9.33;;
17310;SDS011;8773;43.300;0.394;2024-03-22T00:47:50;13.33;;;9.53;;
17310;SDS011;8773;43.300;0.394;2024-03-22T00:50:18;12.00;;;8.90;;
17310;SDS011;8773;43.300;0.394;2024-03-22T00:52:45;10.50;;;9.07;;
17310;SDS011;8773;43.300;0.394;2024-03-22T00:55:12;12.83;;;9.37;;
17310;SDS011;8773;43.300;0.394;2024-03-22T00:57:40;13.77;;;9.50;;
17310;SDS011;8773;43.300;0.394;2024-03-22T01:00:07;11.30;;;9.50;;
17310;SDS011;8773;43.300;0.394;2024-03-22T01:02:35;11.17;;;9.63;;
17310;SDS011;8773;43.300;0.394;2024-03-22T01:05:02;14.10;;;10.27;;
17310;SDS011;8773;43.300;0.394;2024-03-22T01:07:31;13.90;;;10.70;;
17310;SDS011;8773;43.300;0.394;2024-03-22T01:09:58;10.97;;;9.23;;
17310;SDS011;8773;43.300;0.394;2024-03-22T01:12:25;13.10;;;9.53;;
17310;SDS011;8773;43.300;0.394;2024-03-22T01:14:52;12.00;;;10.07;;
17310;SDS011;8773;43.300;0.394;2024-03-22T01:17:19;10.77;;;9.60;;
17310;SDS011;8773;43.300;0.394;2024-03-22T01:19:46;13.60;;;10.03;;
17310;SDS011;8773;43.300;0.394;2024-03-22T01:22:13;14.93;;;10.67;;
17310;SDS011;8773;43.300;0.394;2024-03-22T01:24:41;11.70;;;10.27;;
17310;SDS011;8773;43.300;0.394;2024-03-22T01:27:08;12.20;;;10.00;;
17310;SDS011;8773;43.300;0.394;2024-03-22T01:29:35;14.17;;;9.83;;
17310;SDS011;8773;43.300;0.394;2024-03-22T01:32:03;12.93;;;9.80;;
17310;SDS011;8773;43.300;0.394;2024-03-22T01:34:30;14.23;;;11.03;;
17310;SDS011;8773;43.300;0.394;2024-03-22T01:36:58;14.37;;;10.17;;
17310;SDS011;8773;43.300;0.394;2024-03-22T01:39:24;13.77;;;10.00;;
17310;SDS011;8773;43.300;0.394;2024-03-22T01:41:53;14.93;;;10.23;;
17310;SDS011;8773;43.300;0.394;2024-03-22T01:44:26;17.33;;;10.43;;
17310;SDS011;8773;43.300;0.394;2024-03-22T01:46:54;14.13;;;10.00;;
17310;SDS011;8773;43.300;0.394;2024-03-22T01:49:21;11.20;;;10.00;;
17310;SDS011;8773;43.300;0.394;2024-03-22T01:51:51;14.00;;;10.27;;
17310;SDS011;8773;43.300;0.394;2024-03-22T01:54:19;13.10;;;10.90;;
17310;SDS011;8773;43.300;0.394;2024-03-22T01:56:47;12.43;;;10.10;;
17310;SDS011;8773;43.300;0.394;2024-03-22T01:59:15;13.87;;;10.63;;
17310;SDS011;8773;43.300;0.394;2024-03-22T02:01:43;12.60;;;10.00;;
17310;SDS011;8773;43.300;0.394;2024-03-22T02:04:10;12.77;;;10.40;;
17310;SDS011;8773;43.300;0.394;2024-03-22T02:06:38;13.33;;;9.97;;
17310;SDS011;8773;43.300;0.394;2024-03-22T02:09:04;12.23;;;9.43;;
17310;SDS011;8773;43.300;0.394;2024-03-22T02:11:32;11.37;;;10.17;;
17310;SDS011;8773;43.300;0.394;2024-03-22T02:13:58;15.30;;;10.37;;
17310;SDS011;8773;43.300;0.394;2024-03-22T02:16:27;11.30;;;9.93;;
17310;SDS011;8773;43.300;0.394;2024-03-22T02:18:53;13.57;;;9.80;;
17310;SDS011;8773;43.300;0.394;2024-03-22T02:21:21;12.67;;;9.90;;
17310;SDS011;8773;43.300;0.394;2024-03-22T02:23:49;13.47;;;9.97;;
17310;SDS011;8773;43.300;0.394;2024-03-22T02:26:16;11.57;;;9.53;;
17310;SDS011;8773;43.300;0.394;2024-03-22T02:28:44;12.07;;;10.07;;
17310;SDS011;8773;43.300;0.394;2024-03-22T02:31:10;11.07;;;9.90;;
17310;SDS011;8773;43.300;0.394;2024-03-22T02:33:38;13.93;;;10.20;;
17310;SDS011;8773;43.300;0.394;2024-03-22T02:36:05;15.80;;;10.00;;
17310;SDS011;8773;43.300;0.394;2024-03-22T02:38:32;12.37;;;9.77;;
17310;SDS011;8773;43.300;0.394;2024-03-22T02:41:00;13.40;;;10.23;;
17310;SDS011;8773;43.300;0.394;2024-03-22T02:43:28;11.53;;;9.50;;
17310;SDS011;8773;43.300;0.394;2024-03-22T02:45:54;10.53;;;9.47;;
17310;SDS011;8773;43.300;0.394;2024-03-22T02:48:22;11.10;;;9.53;;
17310;SDS011;8773;43.300;0.394;2024-03-22T02:50:48;12.97;;;10.07;;
17310;SDS011;8773;43.300;0.394;2024-03-22T02:53:16;13.33;;;10.40;;
17310;SDS011;8773;43.300;0.394;2024-03-22T02:55:42;11.30;;;10.13;;
17310;SDS011;8773;43.300;0.394;2024-03-22T02:58:11;11.63;;;9.93;;
17310;SDS011;8773;43.300;0.394;2024-03-22T03:00:38;15.83;;;10.07;;
17310;SDS011;8773;43.300;0.394;2024-03-22T03:03:06;13.93;;;10.27;;
17310;SDS011;8773;43.300;0.394;2024-03-22T03:05:32;14.83;;;10.00;;
17310;SDS011;8773;43.300;0.394;2024-03-22T03:08:00;15.60;;;10.63;;
17310;SDS011;8773;43.300;0.394;2024-03-22T03:10:27;16.30;;;10.27;;
17310;SDS011;8773;43.300;0.394;2024-03-22T03:12:54;11.87;;;10.27;;
17310;SDS011;8773;43.300;0.394;2024-03-22T03:15:22;12.63;;;10.13;;
17310;SDS011;8773;43.300;0.394;2024-03-22T03:17:50;13.83;;;10.60;;
17310;SDS011;8773;43.300;0.394;2024-03-22T03:20:17;12.37;;;10.30;;
17310;SDS011;8773;43.300;0.394;2024-03-22T03:22:45;13.30;;;10.30;;
17310;SDS011;8773;43.300;0.394;2024-03-22T03:25:11;12.57;;;10.67;;
17310;SDS011;8773;43.300;0.394;2024-03-22T03:27:39;12.83;;;9.73;;
17310;SDS011;8773;43.300;0.394;2024-03-22T03:30:06;10.80;;;9.63;;
17310;SDS011;8773;43.300;0.394;2024-03-22T03:32:36;12.33;;;10.63;;
17310;SDS011;8773;43.300;0.394;2024-03-22T03:35:02;11.70;;;9.80;;
17310;SDS011;8773;43.300;0.394;2024-03-22T03:37:31;13.90;;;10.53;;
17310;SDS011;8773;43.300;0.394;2024-03-22T03:39:57;13.33;;;9.47;;
17310;SDS011;8773;43.300;0.394;2024-03-22T03:42:25;11.17;;;9.57;;
17310;SDS011;8773;43.300;0.394;2024-03-22T03:44:51;12.37;;;10.73;;
17310;SDS011;8773;43.300;0.394;2024-03-22T03:47:19;15.37;;;9.77;;
17310;SDS011;8773;43.300;0.394;2024-03-22T03:49:47;14.73;;;9.93;;
17310;SDS011;8773;43.300;0.394;2024-03-22T03:52:14;15.10;;;9.93;;
17310;SDS011;8773;43.300;0.394;2024-03-22T03:54:41;12.80;;;9.97;;
17310;SDS011;8773;43.300;0.394;2024-03-22T03:57:08;13.67;;;10.63;;
17310;SDS011;8773;43.300;0.394;2024-03-22T03:59:35;13.60;;;10.73;;
17310;SDS011;8773;43.300;0.394;2024-03-22T04:02:02;18.03;;;11.63;;
17310;SDS011;8773;43.300;0.394;2024-03-22T04:04:29;15.53;;;11.53;;
17310;SDS011;8773;43.300;0.394;2024-03-22T04:06:58;14.07;;;10.77;;
17310;SDS011;8773;43.300;0.394;2024-03-22T04:09:24;14.23;;;10.37;;
17310;SDS011;8773;43.300;0.394;2024-03-22T04:11:52;12.60;;;9.73;;
17310;SDS011;8773;43.300;0.394;2024-03-22T04:14:18;14.77;;;9.83;;
17310;SDS011;8773;43.300;0.394;2024-03-22T04:16:46;15.70;;;9.90;;
17310;SDS011;8773;43.300;0.394;2024-03-22T04:19:13;11.27;;;9.27;;
17310;SDS011;8773;43.300;0.394;2024-03-22T04:21:41;11.47;;;9.87;;
17310;SDS011;8773;43.300;0.394;2024-03-22T04:24:08;10.77;;;9.03;;
17310;SDS011;8773;43.300;0.394;2024-03-22T04:26:36;10.53;;;8.63;;
17310;SDS011;8773;43.300;0.394;2024-03-22T04:29:02;16.13;;;10.10;;
17310;SDS011;8773;43.300;0.394;2024-03-22T04:31:30;12.57;;;9.83;;
17310;SDS011;8773;43.300;0.394;2024-03-22T04:33:56;14.10;;;9.83;;
17310;SDS011;8773;43.300;0.394;2024-03-22T04:36:24;10.93;;;9.10;;
17310;SDS011;8773;43.300;0.394;2024-03-22T04:38:50;11.23;;;9.63;;
17310;SDS011;8773;43.300;0.394;2024-03-22T04:41:19;10.43;;;8.73;;
17310;SDS011;8773;43.300;0.394;2024-03-22T04:43:47;12.30;;;9.57;;
17310;SDS011;8773;43.300;0.394;2024-03-22T04:46:13;12.73;;;9.60;;
17310;SDS011;8773;43.300;0.394;2024-03-22T04:48:41;12.30;;;9.90;;
17310;SDS011;8773;43.300;0.394;2024-03-22T04:51:07;14.03;;;9.90;;
17310;SDS011;8773;43.300;0.394;2024-03-22T04:53:35;13.07;;;10.17;;
17310;SDS011;8773;43.300;0.394;2024-03-22T04:56:01;14.90;;;9.80;;
17310;SDS011;8773;43.300;0.394;2024-03-22T04:58:30;14.53;;;9.70;;
17310;SDS011;8773;43.300;0.394;2024-03-22T05:00:57;12.73;;;9.73;;
17310;SDS011;8773;43.300;0.394;2024-03-22T05:03:25;17.47;;;10.37;;
17310;SDS011;8773;43.300;0.394;2024-03-22T05:05:51;12.20;;;9.80;;
17310;SDS011;8773;43.300;0.394;2024-03-22T05:08:19;13.60;;;10.57;;
17310;SDS011;8773;43.300;0.394;2024-03-22T05:10:46;16.43;;;10.03;;
17310;SDS011;8773;43.300;0.394;2024-03-22T05:13:13;13.10;;;9.57;;
17310;SDS011;8773;43.300;0.394;2024-03-22T05:15:41;11.97;;;9.83;;
17310;SDS011;8773;43.300;0.394;2024-03-22T05:18:09;14.00;;;10.23;;
17310;SDS011;8773;43.300;0.394;2024-03-22T05:20:35;13.83;;;10.30;;
17310;SDS011;8773;43.300;0.394;2024-03-22T05:23:03;12.27;;;10.47;;
17310;SDS011;8773;43.300;0.394;2024-03-22T05:25:29;11.50;;;9.83;;
17310;SDS011;8773;43.300;0.394;2024-03-22T05:27:57;13.73;;;10.07;;
17310;SDS011;8773;43.300;0.394;2024-03-22T05:30:23;11.27;;;10.07;;
17310;SDS011;8773;43.300;0.394;2024-03-22T05:32:52;13.23;;;9.93;;
17310;SDS011;8773;43.300;0.394;2024-03-22T05:35:18;12.27;;;9.73;;
17310;SDS011;8773;43.300;0.394;2024-03-22T05:37:46;13.50;;;9.73;;
17310;SDS011;8773;43.300;0.394;2024-03-22T05:40:14;17.33;;;10.30;;
17310;SDS011;8773;43.300;0.394;2024-03-22T05:42:42;13.07;;;10.90;;
17310;SDS011;8773;43.300;0.394;2024-03-22T05:45:09;16.20;;;10.80;;
17310;SDS011;8773;43.300;0.394;2024-03-22T05:47:36;12.43;;;11.20;;
17310;SDS011;8773;43.300;0.394;2024-03-22T05:50:06;13.97;;;10.87;;
17310;SDS011;8773;43.300;0.394;2024-03-22T05:52:35;16.03;;;9.53;;
17310;SDS011;8773;43.300;0.394;2024-03-22T05:55:01;12.07;;;9.13;;
17310;SDS011;8773;43.300;0.394;2024-03-22T05:57:29;12.50;;;9.67;;
17310;SDS011;8773;43.300;0.394;2024-03-22T05:59:56;14.73;;;10.40;;
17310;SDS011;8773;43.300;0.394;2024-03-22T06:02:23;11.47;;;9.33;;
17310;SDS011;8773;43.300;0.394;2024-03-22T06:04:50;13.00;;;10.60;;
17310;SDS011;8773;43.300;0.394;2024-03-22T06:07:18;16.83;;;9.63;;
17310;SDS011;8773;43.300;0.394;2024-03-22T06:09:45;14.03;;;9.77;;
17310;SDS011;8773;43.300;0.394;2024-03-22T06:12:12;11.93;;;9.20;;
17310;SDS011;8773;43.300;0.394;2024-03-22T06:14:39;11.83;;;9.37;;
17310;SDS011;8773;43.300;0.394;2024-03-22T06:17:07;12.70;;;9.33;;
17310;SDS011;8773;43.300;0.394;2024-03-22T06:19:34;9.60;;;8.53;;
17310;SDS011;8773;43.300;0.394;2024-03-22T06:22:01;12.73;;;8.53;;
17310;SDS011;8773;43.300;0.394;2024-03-22T06:24:30;9.50;;;8.50;;
17310;SDS011;8773;43.300;0.394;2024-03-22T06:26:57;13.47;;;9.03;;
17310;SDS011;8773;43.300;0.394;2024-03-22T06:29:24;13.50;;;9.30;;
17310;SDS011;8773;43.300;0.394;2024-03-22T06:31:51;15.00;;;9.67;;
17310;SDS011;8773;43.300;0.394;2024-03-22T06:34:18;12.30;;;8.30;;
17310;SDS011;8773;43.300;0.394;2024-03-22T06:36:46;11.10;;;8.93;;
17310;SDS011;8773;43.300;0.394;2024-03-22T06:39:13;10.37;;;8.30;;
17310;SDS011;8773;43.300;0.394;2024-03-22T06:41:42;10.40;;;8.53;;
17310;SDS011;8773;43.300;0.394;2024-03-22T06:44:08;11.90;;;7.73;;
17310;SDS011;8773;43.300;0.394;2024-03-22T06:46:37;12.50;;;8.23;;
17310;SDS011;8773;43.300;0.394;2024-03-22T06:49:05;15.47;;;8.93;;
17310;SDS011;8773;43.300;0.394;2024-03-22T06:51:32;13.17;;;8.43;;
17310;SDS011;8773;43.300;0.394;2024-03-22T06:53:59;14.10;;;8.30;;
17310;SDS011;8773;43.300;0.394;2024-03-22T06:56:26;9.60;;;7.80;;
17310;SDS011;8773;43.300;0.394;2024-03-22T06:58:54;10.20;;;8.00;;
17310;SDS011;8773;43.300;0.394;2024-03-22T07:01:22;8.77;;;7.57;;
17310;SDS011;8773;43.300;0.394;2024-03-22T07:03:48;11.80;;;8.43;;
17310;SDS011;8773;43.300;0.394;2024-03-22T07:06:16;9.27;;;8.17;;
17310;SDS011;8773;43.300;0.394;2024-03-22T07:08:42;10.50;;;8.13;;
17310;SDS011;8773;43.300;0.394;2024-03-22T07:11:10;14.70;;;6.93;;
17310;SDS011;8773;43.300;0.394;2024-03-22T07:13:36;10.33;;;7.33;;
17310;SDS011;8773;43.300;0.394;2024-03-22T07:16:06;8.50;;;7.40;;
17310;SDS011;8773;43.300;0.394;2024-03-22T07:18:32;11.67;;;7.33;;
17310;SDS011;8773;43.300;0.394;2024-03-22T07:21:00;11.23;;;7.13;;
17310;SDS011;8773;43.300;0.394;2024-03-22T07:23:28;9.77;;;7.53;;
17310;SDS011;8773;43.300;0.394;2024-03-22T07:25:55;9.47;;;7.27;;
17310;SDS011;8773;43.300;0.394;2024-03-22T07:28:22;7.90;;;7.20;;
17310;SDS011;8773;43.300;0.394;2024-03-22T07:30:49;11.53;;;6.97;;
17310;SDS011;8773;43.300;0.394;2024-03-22T07:33:17;7.83;;;7.03;;
17310;SDS011;8773;43.300;0.394;2024-03-22T07:35:45;11.03;;;6.53;;
17310;SDS011;8773;43.300;0.394;2024-03-22T07:38:12;11.30;;;6.97;;
17310;SDS011;8773;43.300;0.394;2024-03-22T07:40:40;8.25;;;6.47;;
17310;SDS011;8773;43.300;0.394;2024-03-22T07:43:06;9.55;;;6.97;;
17310;SDS011;8773;43.300;0.394;2024-03-22T07:45:34;7.55;;;6.43;;
17310;SDS011;8773;43.300;0.394;2024-03-22T07:48:01;9.02;;;5.88;;
17310;SDS011;8773;43.300;0.394;2024-03-22T07:50:30;8.82;;;6.85;;
17310;SDS011;8773;43.300;0.394;2024-03-22T07:52:56;9.73;;;6.53;;
17310;SDS011;8773;43.300;0.394;2024-03-22T07:55:24;7.10;;;6.35;;
17310;SDS011;8773;43.300;0.394;2024-03-22T07:57:50;7.72;;;6.47;;
17310;SDS011;8773;43.300;0.394;2024-03-22T08:00:18;11.15;;;6.95;;
17310;SDS011;8773;43.300;0.394;2024-03-22T08:02:45;10.80;;;6.65;;
17310;SDS011;8773;43.300;0.394;2024-03-22T08:05:13;11.75;;;7.40;;
17310;SDS011;8773;43.300;0.394;2024-03-22T08:07:40;9.02;;;7.22;;
17310;SDS011;8773;43.300;0.394;2024-03-22T08:10:09;8.00;;;7.07;;
17310;SDS011;8773;43.300;0.394;2024-03-22T08:12:36;9.77;;;6.85;;
17310;SDS011;8773;43.300;0.394;2024-03-22T08:15:04;7.50;;;6.72;;
17310;SDS011;8773;43.300;0.394;2024-03-22T08:17:31;16.85;;;7.60;;
17310;SDS011;8773;43.300;0.394;2024-03-22T08:19:59;11.02;;;7.28;;
17310;SDS011;8773;43.300;0.394;2024-03-22T08:22:26;10.63;;;7.93;;
17310;SDS011;8773;43.300;0.394;2024-03-22T08:24:54;12.07;;;7.50;;
17310;SDS011;8773;43.300;0.394;2024-03-22T08:27:21;11.18;;;6.85;;
17310;SDS011;8773;43.300;0.394;2024-03-22T08:29:50;7.55;;;6.85;;
17310;SDS011;8773;43.300;0.394;2024-03-22T08:32:16;11.77;;;7.70;;
17310;SDS011;8773;43.300;0.394;2024-03-22T08:34:44;11.98;;;7.07;;
17310;SDS011;8773;43.300;0.394;2024-03-22T08:37:11;9.68;;;7.40;;
17310;SDS011;8773;43.300;0.394;2024-03-22T08:39:39;9.00;;;7.18;;
17310;SDS011;8773;43.300;0.394;2024-03-22T08:42:07;10.38;;;7.25;;
17310;SDS011;8773;43.300;0.394;2024-03-22T08:44:35;11.05;;;7.10;;
17310;SDS011;8773;43.300;0.394;2024-03-22T08:47:01;8.68;;;6.95;;
17310;SDS011;8773;43.300;0.394;2024-03-22T08:49:30;10.60;;;7.07;;
17310;SDS011;8773;43.300;0.394;2024-03-22T08:51:56;9.15;;;7.32;;
17310;SDS011;8773;43.300;0.394;2024-03-22T08:54:24;11.77;;;7.75;;
17310;SDS011;8773;43.300;0.394;2024-03-22T08:56:50;13.82;;;7.72;;
17310;SDS011;8773;43.300;0.394;2024-03-22T08:59:19;10.75;;;6.72;;
17310;SDS011;8773;43.300;0.394;2024-03-22T09:01:46;13.77;;;8.05;;
17310;SDS011;8773;43.300;0.394;2024-03-22T09:04:14;10.35;;;7.65;;
17310;SDS011;8773;43.300;0.394;2024-03-22T09:06:41;13.35;;;7.75;;
17310;SDS011;8773;43.300;0.394;2024-03-22T09:09:08;10.07;;;7.55;;
17310;SDS011;8773;43.300;0.394;2024-03-22T09:11:35;16.23;;;8.50;;
17310;SDS011;8773;43.300;0.394;2024-03-22T09:14:02;10.50;;;7.80;;
17310;SDS011;8773;43.300;0.394;2024-03-22T09:16:30;13.48;;;8.35;;
17310;SDS011;8773;43.300;0.394;2024-03-22T09:18:58;10.07;;;8.50;;
17310;SDS011;8773;43.300;0.394;2024-03-22T09:21:25;9.52;;;7.63;;
17310;SDS011;8773;43.300;0.394;2024-03-22T09:23:52;10.68;;;7.07;;
17310;SDS011;8773;43.300;0.394;2024-03-22T09:26:19;12.50;;;8.05;;
17310;SDS011;8773;43.300;0.394;2024-03-22T09:28:46;12.35;;;8.07;;
17310;SDS011;8773;43.300;0.394;2024-03-22T09:31:13;11.15;;;7.78;;
17310;SDS011;8773;43.300;0.394;2024-03-22T09:33:42;9.82;;;7.70;;
17310;SDS011;8773;43.300;0.394;2024-03-22T09:36:08;11.82;;;7.45;;
17310;SDS011;8773;43.300;0.394;2024-03-22T09:38:36;10.48;;;6.97;;
17310;SDS011;8773;43.300;0.394;2024-03-22T09:41:03;11.48;;;7.43;;
17310;SDS011;8773;43.300;0.394;2024-03-22T09:43:31;9.57;;;7.47;;
17310;SDS011;8773;43.300;0.394;2024-03-22T09:45:59;11.27;;;7.38;;
17310;SDS011;8773;43.300;0.394;2024-03-22T09:48:27;9.52;;;7.38;;
17310;SDS011;8773;43.300;0.394;2024-03-22T09:50:56;12.57;;;7.57;;
17310;SDS011;8773;43.300;0.394;2024-03-22T09:53:24;11.50;;;7.47;;
17310;SDS011;8773;43.300;0.394;2024-03-22T09:55:53;11.68;;;7.45;;
17310;SDS011;8773;43.300;0.394;2024-03-22T09:58:23;10.93;;;7.05;;
17310;SDS011;8773;43.300;0.394;2024-03-22T10:00:50;12.05;;;6.85;;
17310;SDS011;8773;43.300;0.394;2024-03-22T10:03:18;13.18;;;7.47;;
17310;SDS011;8773;43.300;0.394;2024-03-22T10:05:44;10.13;;;7.57;;
17310;SDS011;8773;43.300;0.394;2024-03-22T10:08:14;11.88;;;7.47;;
17310;SDS011;8773;43.300;0.394;2024-03-22T10:10:41;9.88;;;7.43;;
17310;SDS011;8773;43.300;0.394;2024-03-22T10:13:09;12.48;;;7.82;;
17310;SDS011;8773;43.300;0.394;2024-03-22T10:15:35;12.90;;;7.15;;
17310;SDS011;8773;43.300;0.394;2024-03-22T10:18:02;14.25;;;7.82;;
17310;SDS011;8773;43.300;0.394;2024-03-22T10:20:29;10.60;;;7.55;;
17310;SDS011;8773;43.300;0.394;2024-03-22T10:22:57;12.57;;;7.15;;
17310;SDS011;8773;43.300;0.394;2024-03-22T10:25:25;10.52;;;7.25;;
17310;SDS011;8773;43.300;0.394;2024-03-22T10:27:53;11.50;;;7.13;;
17310;SDS011;8773;43.300;0.394;2024-03-22T10:30:19;11.93;;;7.15;;
17310;SDS011;8773;43.300;0.394;2024-03-22T10:32:46;14.02;;;7.65;;
17310;SDS011;8773;43.300;0.394;2024-03-22T10:35:14;9.75;;;7.00;;
17310;SDS011;8773;43.300;0.394;2024-03-22T10:37:41;12.30;;;8.18;;
17310;SDS011;8773;43.300;0.394;2024-03-22T10:40:07;14.02;;;7.70;;
17310;SDS011;8773;43.300;0.394;2024-03-22T10:42:37;13.93;;;7.95;;
17310;SDS011;8773;43.300;0.394;2024-03-22T10:45:03;11.07;;;7.35;;
17310;SDS011;8773;43.300;0.394;2024-03-22T10:47:31;13.00;;;7.63;;
17310;SDS011;8773;43.300;0.394;2024-03-22T10:49:58;12.30;;;8.23;;
17310;SDS011;8773;43.300;0.394;2024-03-22T10:52:30;12.10;;;7.30;;
17310;SDS011;8773;43.300;0.394;2024-03-22T10:54:56;10.93;;;7.13;;
17310;SDS011;8773;43.300;0.394;2024-03-22T10:57:24;11.75;;;6.97;;
17310;SDS011;8773;43.300;0.394;2024-03-22T10:59:55;10.07;;;7.10;;
17310;SDS011;8773;43.300;0.394;2024-03-22T11:02:23;11.65;;;7.13;;
17310;SDS011;8773;43.300;0.394;2024-03-22T11:04:58;9.38;;;7.47;;
17310;SDS011;8773;43.300;0.394;2024-03-22T11:07:28;13.30;;;6.53;;
17310;SDS011;8773;43.300;0.394;2024-03-22T11:09:55;10.18;;;6.57;;
17310;SDS011;8773;43.300;0.394;2024-03-22T11:12:24;9.50;;;6.05;;
17310;SDS011;8773;43.300;0.394;2024-03-22T11:14:51;9.43;;;6.00;;
17310;SDS011;8773;43.300;0.394;2024-03-22T11:17:20;9.93;;;6.25;;
17310;SDS011;8773;43.300;0.394;2024-03-22T11:19:48;11.13;;;6.05;;
17310;SDS011;8773;43.300;0.394;2024-03-22T11:22:15;12.43;;;6.28;;
17310;SDS011;8773;43.300;0.394;2024-03-22T11:24:42;12.43;;;6.20;;
17310;SDS011;8773;43.300;0.394;2024-03-22T11:27:09;10.15;;;6.22;;
17310;SDS011;8773;43.300;0.394;2024-03-22T11:29:36;10.18;;;5.97;;
17310;SDS011;8773;43.300;0.394;2024-03-22T11:32:04;10.00;;;6.32;;
17310;SDS011;8773;43.300;0.394;2024-03-22T11:34:32;9.35;;;5.28;;
17310;SDS011;8773;43.300;0.394;2024-03-22T11:36:59;10.68;;;5.45;;
17310;SDS011;8773;43.300;0.394;2024-03-22T11:39:25;11.35;;;5.07;;
17310;SDS011;8773;43.300;0.394;2024-03-22T11:41:52;11.30;;;5.50;;
17310;SDS011;8773;43.300;0.394;2024-03-22T11:44:18;9.77;;;5.57;;
17310;SDS011;8773;43.300;0.394;2024-03-22T11:46:46;8.27;;;5.00;;
17310;SDS011;8773;43.300;0.394;2024-03-22T11:49:13;13.32;;;5.35;;
17310;SDS011;8773;43.300;0.394;2024-03-22T11:51:41;8.90;;;5.03;;
17310;SDS011;8773;43.300;0.394;2024-03-22T11:54:07;8.32;;;4.90;;
17310;SDS011;8773;43.300;0.394;2024-03-22T11:56:34;7.93;;;4.80;;
17310;SDS011;8773;43.300;0.394;2024-03-22T11:59:01;8.43;;;5.00;;
17310;SDS011;8773;43.300;0.394;2024-03-22T12:01:29;11.70;;;5.15;;
17310;SDS011;8773;43.300;0.394;2024-03-22T12:03:55;8.50;;;4.40;;
17310;SDS011;8773;43.300;0.394;2024-03-22T12:06:22;8.50;;;4.43;;
17310;SDS011;8773;43.300;0.394;2024-03-22T12:08:50;6.85;;;4.55;;
17310;SDS011;8773;43.300;0.394;2024-03-22T12:11:17;11.90;;;4.75;;
17310;SDS011;8773;43.300;0.394;2024-03-22T12:13:43;10.82;;;3.97;;
17310;SDS011;8773;43.300;0.394;2024-03-22T12:16:10;9.93;;;4.05;;
17310;SDS011;8773;43.300;0.394;2024-03-22T12:18:36;9.82;;;4.97;;
17310;SDS011;8773;43.300;0.394;2024-03-22T12:21:03;9.02;;;4.38;;
17310;SDS011;8773;43.300;0.394;2024-03-22T12:23:29;10.18;;;3.80;;
17310;SDS011;8773;43.300;0.394;2024-03-22T12:25:58;9.00;;;4.20;;
17310;SDS011;8773;43.300;0.394;2024-03-22T12:28:24;9.57;;;4.25;;
17310;SDS011;8773;43.300;0.394;2024-03-22T12:30:51;11.77;;;4.40;;
17310;SDS011;8773;43.300;0.394;2024-03-22T12:33:17;10.13;;;4.20;;
17310;SDS011;8773;43.300;0.394;2024-03-22T12:35:44;10.80;;;3.90;;
17310;SDS011;8773;43.300;0.394;2024-03-22T12:38:11;10.55;;;4.07;;
17310;SDS011;8773;43.300;0.394;2024-03-22T12:40:39;10.02;;;3.97;;
17310;SDS011;8773;43.300;0.394;2024-03-22T12:43:07;13.23;;;4.38;;
17310;SDS011;8773;43.300;0.394;2024-03-22T12:45:35;7.60;;;3.60;;
17310;SDS011;8773;43.300;0.394;2024-03-22T12:48:02;9.05;;;3.95;;
17310;SDS011;8773;43.300;0.394;2024-03-22T12:50:29;8.52;;;4.10;;
17310;SDS011;8773;43.300;0.394;2024-03-22T12:52:56;10.68;;;3.85;;
17310;SDS011;8773;43.300;0.394;2024-03-22T12:55:23;9.43;;;4.32;;
17310;SDS011;8773;43.300;0.394;2024-03-22T12:57:49;8.50;;;4.03;;
17310;SDS011;8773;43.300;0.394;2024-03-22T13:00:17;8.77;;;3.97;;
17310;SDS011;8773;43.300;0.394;2024-03-22T13:02:44;7.40;;;3.85;;
17310;SDS011;8773;43.300;0.394;2024-03-22T13:05:12;9.32;;;3.78;;
17310;SDS011;8773;43.300;0.394;2024-03-22T13:07:38;14.60;;;4.82;;
17310;SDS011;8773;43.300;0.394;2024-03-22T13:10:05;10.30;;;3.67;;
17310;SDS011;8773;43.300;0.394;2024-03-22T13:12:31;7.70;;;3.97;;
17310;SDS011;8773;43.300;0.394;2024-03-22T13:15:00;11.20;;;4.10;;
17310;SDS011;8773;43.300;0.394;2024-03-22T13:17:27;9.52;;;3.85;;
17310;SDS011;8773;43.300;0.394;2024-03-22T13:19:54;9.48;;;3.78;;
17310;SDS011;8773;43.300;0.394;2024-03-22T13:22:20;9.43;;;3.47;;
17310;SDS011;8773;43.300;0.394;2024-03-22T13:24:47;11.93;;;4.25;;
17310;SDS011;8773;43.300;0.394;2024-03-22T13:27:13;11.10;;;3.67;;
17310;SDS011;8773;43.300;0.394;2024-03-22T13:29:40;7.97;;;3.65;;
17310;SDS011;8773;43.300;0.394;2024-03-22T13:32:07;11.32;;;3.45;;
17310;SDS011;8773;43.300;0.394;2024-03-22T13:34:35;10.82;;;4.07;;
17310;SDS011;8773;43.300;0.394;2024-03-22T13:37:01;9.60;;;4.20;;
17310;SDS011;8773;43.300;0.394;2024-03-22T13:39:29;8.98;;;4.30;;
17310;SDS011;8773;43.300;0.394;2024-03-22T13:41:55;11.70;;;3.55;;
17310;SDS011;8773;43.300;0.394;2024-03-22T13:44:22;9.82;;;3.92;;
17310;SDS011;8773;43.300;0.394;2024-03-22T13:46:49;9.05;;;3.50;;
17310;SDS011;8773;43.300;0.394;2024-03-22T13:49:16;12.35;;;4.10;;
17310;SDS011;8773;43.300;0.394;2024-03-22T13:51:44;12.40;;;4.55;;
17310;SDS011;8773;43.300;0.394;2024-03-22T13:54:11;13.40;;;4.03;;
17310;SDS011;8773;43.300;0.394;2024-03-22T13:56:38;8.50;;;4.30;;
17310;SDS011;8773;43.300;0.394;2024-03-22T13:59:05;11.13;;;4.03;;
17310;SDS011;8773;43.300;0.394;2024-03-22T14:01:31;10.75;;;3.67;;
17310;SDS011;8773;43.300;0.394;2024-03-22T14:03:58;12.07;;;4.70;;
17310;SDS011;8773;43.300;0.394;2024-03-22T14:06:24;12.50;;;4.00;;
17310;SDS011;8773;43.300;0.394;2024-03-22T14:08:53;9.18;;;3.85;;
17310;SDS011;8773;43.300;0.394;2024-03-22T14:11:25;9.27;;;3.92;;
17310;SDS011;8773;43.300;0.394;2024-03-22T14:13:53;8.48;;;3.53;;
17310;SDS011;8773;43.300;0.394;2024-03-22T14:16:19;11.35;;;4.03;;
17310;SDS011;8773;43.300;0.394;2024-03-22T14:18:46;10.93;;;4.20;;
17310;SDS011;8773;43.300;0.394;2024-03-22T14:21:13;8.73;;;4.50;;
17310;SDS011;8773;43.300;0.394;2024-03-22T14:23:45;9.82;;;4.63;;
17310;SDS011;8773;43.300;0.394;2024-03-22T14:26:13;9.07;;;3.72;;
17310;SDS011;8773;43.300;0.394;2024-03-22T14:28:39;11.27;;;4.50;;
17310;SDS011;8773;43.300;0.394;2024-03-22T14:31:07;9.27;;;3.70;;
17310;SDS011;8773;43.300;0.394;2024-03-22T14:33:34;7.75;;;3.95;;
17310;SDS011;8773;43.300;0.394;2024-03-22T14:36:01;9.68;;;4.07;;
17310;SDS011;8773;43.300;0.394;2024-03-22T14:38:27;7.05;;;3.72;;
17310;SDS011;8773;43.300;0.394;2024-03-22T14:40:54;11.00;;;4.00;;
17310;SDS011;8773;43.300;0.394;2024-03-22T14:43:22;11.13;;;4.22;;
17310;SDS011;8773;43.300;0.394;2024-03-22T14:45:49;13.50;;;4.35;;
17310;SDS011;8773;43.300;0.394;2024-03-22T14:48:15;9.38;;;4.47;;